Schooner Bowdoin — WAM8653 — position and weather

sailwx.info

Track history (hours):
 
Tides and Currents Weather Stations Pressure Air Temp Water Temp Dewpoint Dewpoint Depression Visibility Wind Speed Wind Dir Waves Ship Positions

Schooner Bowdoin

Training vessel for Maine Maritime Academy.

Ship's website: http://bowdoin.mma.edu/

Owner: MAINE MARITIME ACADEMY, CASTINE, ME. More information available from US FCC via Universal Licensing System and Coast Guard Vessel Documentation Center.

Last reported at 2017-Aug-26 10:06 UTC. Time now 2017-Oct-17 06:08 UTC.
Position N 44°12' W 069°01'.
Warning: this ship's position is 51 days out of date.

; draft 3 m.

Type: Sailing vessel. MMSI: 303498000.

Date/timePositionNaut miles runAvg speedWind from/ knotsBaromVisibWave heightAir tempDewpointWater temp
2017-Aug-26 10:06N 44°12' W 069°01'1 5.1
2017-Aug-26 09:51N 44°11' W 069°01'4 4.9
2017-Aug-26 09:03N 44°07' W 069°01'3 2.1
2017-Aug-26 07:51N 44°05' W 068°59'41 3.8
2017-Aug-25 20:57N 43°38' W 069°43'3 5.9
2017-Aug-25 20:30N 43°39' W 069°47'3 5.1
2017-Aug-25 20:00N 43°39' W 069°50'3 5.3
2017-Aug-25 19:30N 43°39' W 069°54'2 4.4
2017-Aug-25 19:00N 43°39' W 069°57'2 3.8
2017-Aug-25 18:30N 43°40' W 069°59'2 4.6
2017-Aug-25 18:00N 43°40' W 070°03'2 4.1
2017-Aug-25 17:30N 43°39' W 070°05'2 4.7
2017-Aug-25 17:00N 43°38' W 070°07'2 4.5
2017-Aug-25 16:30N 43°38' W 070°10'2 3.5
2017-Aug-25 15:55N 43°38' W 070°13'1 3.1
2017-Aug-25 15:30N 43°39' W 070°14'1 1.2
2017-Aug-25 15:00N 43°39' W 070°15'5 4.5
2017-Aug-25 13:59N 43°38' W 070°09'3 5.2
2017-Aug-25 13:30N 43°38' W 070°05'1 2.9
2017-Aug-25 13:00N 43°38' W 070°03'2 3.9
2017-Aug-25 12:30N 43°38' W 070°00'2 4.6
2017-Aug-25 12:00N 43°39' W 069°57'2 4.3
2017-Aug-25 11:29N 43°38' W 069°54'3 3.7
2017-Aug-25 10:47N 43°38' W 069°51'1 4.1
2017-Aug-25 10:27N 43°38' W 069°49'2 3.1
2017-Aug-25 09:51N 43°38' W 069°46'  
Track history (hours):
 
Tides and Currents Weather Stations Pressure Air Temp Water Temp Dewpoint Dewpoint Depression Visibility Wind Speed Wind Dir Waves Ship Positions

Schooner Bowdoin

Training vessel for Maine Maritime Academy.

Ship's website: http://bowdoin.mma.edu/

Owner: MAINE MARITIME ACADEMY, CASTINE, ME. More information available from US FCC via Universal Licensing System and Coast Guard Vessel Documentation Center.

Last reported at 2017-Aug-26 10:06 UTC. Time now 2017-Oct-17 06:08 UTC.
Position N 44°12' W 069°01'.
Warning: this ship's position is 51 days out of date.

; draft 3 m.

Type: Sailing vessel. MMSI: 303498000.

Date/timePositionNaut miles runAvg speedWind from/ knotsBaromVisibWave heightAir tempDewpointWater temp
2017-Aug-26 10:06N 44°12' W 069°01'1 5.1
2017-Aug-26 09:51N 44°11' W 069°01'4 4.9
2017-Aug-26 09:03N 44°07' W 069°01'3 2.1
2017-Aug-26 07:51N 44°05' W 068°59'41 3.8
2017-Aug-25 20:57N 43°38' W 069°43'3 5.9
2017-Aug-25 20:30N 43°39' W 069°47'3 5.1
2017-Aug-25 20:00N 43°39' W 069°50'3 5.3
2017-Aug-25 19:30N 43°39' W 069°54'2 4.4
2017-Aug-25 19:00N 43°39' W 069°57'2 3.8
2017-Aug-25 18:30N 43°40' W 069°59'2 4.6
2017-Aug-25 18:00N 43°40' W 070°03'2 4.1
2017-Aug-25 17:30N 43°39' W 070°05'2 4.7
2017-Aug-25 17:00N 43°38' W 070°07'2 4.5
2017-Aug-25 16:30N 43°38' W 070°10'2 3.5
2017-Aug-25 15:55N 43°38' W 070°13'1 3.1
2017-Aug-25 15:30N 43°39' W 070°14'1 1.2
2017-Aug-25 15:00N 43°39' W 070°15'5 4.5
2017-Aug-25 13:59N 43°38' W 070°09'3 5.2
2017-Aug-25 13:30N 43°38' W 070°05'1 2.9
2017-Aug-25 13:00N 43°38' W 070°03'2 3.9
2017-Aug-25 12:30N 43°38' W 070°00'2 4.6
2017-Aug-25 12:00N 43°39' W 069°57'2 4.3
2017-Aug-25 11:29N 43°38' W 069°54'3 3.7
2017-Aug-25 10:47N 43°38' W 069°51'1 4.1
2017-Aug-25 10:27N 43°38' W 069°49'2 3.1
2017-Aug-25 09:51N 43°38' W 069°46'  

Dump ship's entire track history